Wheatland, Indiana
Current Conditions -  °F | °C
As of 11:35 AM on Tuesday 21 Oct 2014 (Local Time) from KDCY Reporting Station
Overcast Overcast  
Wind Chill: 58°   Ceiling: 3600
Heat Index: 58°   Visibility: 10mi
Dew Point: 45°   Wind: 13mph
Humidity: 62%   Direction: 360°N
Pressure: 30.1"   Gusts: 20mph
Location:  38.66°N, 87.31°W
Report Text: KDCY 211635Z AUTO 36011G17KT 10SM OVC036 14/07 A3010 RMK AO2 T01420071
Loading
Personal Weather Stations






























Interactive Weather Map
Tropical Storm Tracking
New forecast layout! Learn more

10-Day Weather Forecast

Advertisements
Track Severe Weather on mobile